sensor_id;sensor_type;location;lat;lon;timestamp;temperature;humidity
32965;DHT22;19317;48.226;11.686;2023-05-07T00:03:11;15.20;99.90
32965;DHT22;19317;48.226;11.686;2023-05-07T00:08:02;15.00;99.90
32965;DHT22;19317;48.226;11.686;2023-05-07T00:12:52;15.00;99.90
32965;DHT22;19317;48.226;11.686;2023-05-07T00:17:43;15.10;99.90
32965;DHT22;19317;48.226;11.686;2023-05-07T00:22:33;15.00;99.90
32965;DHT22;19317;48.226;11.686;2023-05-07T00:27:24;14.90;99.90
32965;DHT22;19317;48.226;11.686;2023-05-07T00:32:15;14.60;99.90
32965;DHT22;19317;48.226;11.686;2023-05-07T00:37:05;14.10;99.90
32965;DHT22;19317;48.226;11.686;2023-05-07T00:41:56;14.60;99.90
32965;DHT22;19317;48.226;11.686;2023-05-07T00:46:46;14.70;99.90
32965;DHT22;19317;48.226;11.686;2023-05-07T00:51:37;14.70;99.90
32965;DHT22;19317;48.226;11.686;2023-05-07T00:56:27;14.70;99.90
32965;DHT22;19317;48.226;11.686;2023-05-07T01:01:18;14.80;99.90
32965;DHT22;19317;48.226;11.686;2023-05-07T01:06:10;14.60;99.90
32965;DHT22;19317;48.226;11.686;2023-05-07T01:11:02;13.60;99.90
32965;DHT22;19317;48.226;11.686;2023-05-07T01:15:53;13.90;99.90
32965;DHT22;19317;48.226;11.686;2023-05-07T01:20:43;14.40;99.90
32965;DHT22;19317;48.226;11.686;2023-05-07T01:25:34;14.50;99.90
32965;DHT22;19317;48.226;11.686;2023-05-07T01:30:25;14.50;99.90
32965;DHT22;19317;48.226;11.686;2023-05-07T01:35:29;13.80;99.90
32965;DHT22;19317;48.226;11.686;2023-05-07T01:40:20;14.10;99.90
32965;DHT22;19317;48.226;11.686;2023-05-07T01:45:11;14.40;99.90
32965;DHT22;19317;48.226;11.686;2023-05-07T01:50:02;14.60;99.90
32965;DHT22;19317;48.226;11.686;2023-05-07T01:54:52;14.60;99.90
32965;DHT22;19317;48.226;11.686;2023-05-07T01:59:43;14.60;99.90
32965;DHT22;19317;48.226;11.686;2023-05-07T02:04:33;14.40;99.90
32965;DHT22;19317;48.226;11.686;2023-05-07T02:09:24;14.50;99.90
32965;DHT22;19317;48.226;11.686;2023-05-07T02:14:14;14.40;99.90
32965;DHT22;19317;48.226;11.686;2023-05-07T02:19:05;14.40;99.90
32965;DHT22;19317;48.226;11.686;2023-05-07T02:23:55;14.20;99.90
32965;DHT22;19317;48.226;11.686;2023-05-07T02:28:46;14.10;99.90
32965;DHT22;19317;48.226;11.686;2023-05-07T02:33:36;14.10;99.90
32965;DHT22;19317;48.226;11.686;2023-05-07T02:38:27;14.20;99.90
32965;DHT22;19317;48.226;11.686;2023-05-07T02:43:17;14.20;99.90
32965;DHT22;19317;48.226;11.686;2023-05-07T02:48:08;14.10;99.90
32965;DHT22;19317;48.226;11.686;2023-05-07T02:52:58;13.90;99.90
32965;DHT22;19317;48.226;11.686;2023-05-07T02:57:49;14.00;99.90
32965;DHT22;19317;48.226;11.686;2023-05-07T03:02:39;14.10;99.90
32965;DHT22;19317;48.226;11.686;2023-05-07T03:07:29;14.00;99.90
32965;DHT22;19317;48.226;11.686;2023-05-07T03:12:20;13.80;99.90
32965;DHT22;19317;48.226;11.686;2023-05-07T03:17:10;13.90;99.90
32965;DHT22;19317;48.226;11.686;2023-05-07T03:22:01;13.20;99.90
32965;DHT22;19317;48.226;11.686;2023-05-07T03:26:51;13.60;99.90
32965;DHT22;19317;48.226;11.686;2023-05-07T03:31:42;13.70;99.90
32965;DHT22;19317;48.226;11.686;2023-05-07T03:36:32;13.80;99.90
32965;DHT22;19317;48.226;11.686;2023-05-07T03:41:23;13.80;99.90
32965;DHT22;19317;48.226;11.686;2023-05-07T03:46:13;13.50;99.90
32965;DHT22;19317;48.226;11.686;2023-05-07T03:51:04;13.70;99.90
32965;DHT22;19317;48.226;11.686;2023-05-07T03:55:54;13.70;99.90
32965;DHT22;19317;48.226;11.686;2023-05-07T04:00:44;13.50;99.90
32965;DHT22;19317;48.226;11.686;2023-05-07T04:05:35;13.50;99.90
32965;DHT22;19317;48.226;11.686;2023-05-07T04:10:26;13.40;99.90
32965;DHT22;19317;48.226;11.686;2023-05-07T04:15:16;13.50;99.90
32965;DHT22;19317;48.226;11.686;2023-05-07T04:20:14;13.50;99.90
32965;DHT22;19317;48.226;11.686;2023-05-07T04:25:05;13.40;99.90
32965;DHT22;19317;48.226;11.686;2023-05-07T04:29:56;13.40;99.90
32965;DHT22;19317;48.226;11.686;2023-05-07T04:34:46;13.20;99.90
32965;DHT22;19317;48.226;11.686;2023-05-07T04:39:36;13.50;99.90
32965;DHT22;19317;48.226;11.686;2023-05-07T04:44:27;13.60;99.90
32965;DHT22;19317;48.226;11.686;2023-05-07T04:49:17;13.60;99.90
32965;DHT22;19317;48.226;11.686;2023-05-07T04:54:08;13.50;99.90
32965;DHT22;19317;48.226;11.686;2023-05-07T04:58:58;13.70;99.90
32965;DHT22;19317;48.226;11.686;2023-05-07T05:03:49;13.70;99.90
32965;DHT22;19317;48.226;11.686;2023-05-07T05:08:39;13.70;99.90
32965;DHT22;19317;48.226;11.686;2023-05-07T05:13:30;13.70;99.90
32965;DHT22;19317;48.226;11.686;2023-05-07T05:18:20;13.90;99.90
32965;DHT22;19317;48.226;11.686;2023-05-07T05:23:11;13.80;99.90
32965;DHT22;19317;48.226;11.686;2023-05-07T05:28:01;13.90;99.90
32965;DHT22;19317;48.226;11.686;2023-05-07T05:32:51;13.70;99.90
32965;DHT22;19317;48.226;11.686;2023-05-07T05:37:43;14.00;99.90
32965;DHT22;19317;48.226;11.686;2023-05-07T05:42:33;13.80;99.90
32965;DHT22;19317;48.226;11.686;2023-05-07T05:47:24;13.70;99.90
32965;DHT22;19317;48.226;11.686;2023-05-07T05:52:14;13.80;99.90
32965;DHT22;19317;48.226;11.686;2023-05-07T05:57:05;13.90;99.90
32965;DHT22;19317;48.226;11.686;2023-05-07T06:01:55;13.90;99.90
32965;DHT22;19317;48.226;11.686;2023-05-07T06:06:46;14.10;99.90
32965;DHT22;19317;48.226;11.686;2023-05-07T06:11:36;14.10;99.90
32965;DHT22;19317;48.226;11.686;2023-05-07T06:16:27;14.30;99.90
32965;DHT22;19317;48.226;11.686;2023-05-07T06:21:17;14.30;99.90
32965;DHT22;19317;48.226;11.686;2023-05-07T06:26:08;14.50;99.90
32965;DHT22;19317;48.226;11.686;2023-05-07T06:31:14;14.70;99.90
32965;DHT22;19317;48.226;11.686;2023-05-07T06:36:05;14.90;99.90
32965;DHT22;19317;48.226;11.686;2023-05-07T06:40:55;15.20;99.90
32965;DHT22;19317;48.226;11.686;2023-05-07T06:45:46;15.20;99.90
32965;DHT22;19317;48.226;11.686;2023-05-07T06:50:36;15.30;99.90
32965;DHT22;19317;48.226;11.686;2023-05-07T06:55:27;16.00;99.90
32965;DHT22;19317;48.226;11.686;2023-05-07T07:00:18;16.50;99.90
32965;DHT22;19317;48.226;11.686;2023-05-07T07:05:08;16.50;99.90
32965;DHT22;19317;48.226;11.686;2023-05-07T07:09:59;16.40;99.90
32965;DHT22;19317;48.226;11.686;2023-05-07T07:14:49;16.40;99.90
32965;DHT22;19317;48.226;11.686;2023-05-07T07:19:40;16.60;99.90
32965;DHT22;19317;48.226;11.686;2023-05-07T07:24:30;16.70;99.90
32965;DHT22;19317;48.226;11.686;2023-05-07T07:29:21;16.70;99.90
32965;DHT22;19317;48.226;11.686;2023-05-07T07:34:11;16.90;99.90
32965;DHT22;19317;48.226;11.686;2023-05-07T07:39:02;17.00;99.90
32965;DHT22;19317;48.226;11.686;2023-05-07T07:43:52;17.00;99.90
32965;DHT22;19317;48.226;11.686;2023-05-07T07:48:42;17.30;99.90
32965;DHT22;19317;48.226;11.686;2023-05-07T07:53:33;17.30;99.90
32965;DHT22;19317;48.226;11.686;2023-05-07T07:58:23;17.40;99.90
32965;DHT22;19317;48.226;11.686;2023-05-07T08:03:14;17.50;99.90
32965;DHT22;19317;48.226;11.686;2023-05-07T08:08:05;17.80;99.90
32965;DHT22;19317;48.226;11.686;2023-05-07T08:12:55;17.90;99.90
32965;DHT22;19317;48.226;11.686;2023-05-07T08:17:46;17.80;99.90
32965;DHT22;19317;48.226;11.686;2023-05-07T08:22:36;18.00;99.90
32965;DHT22;19317;48.226;11.686;2023-05-07T08:27:27;18.10;99.90
32965;DHT22;19317;48.226;11.686;2023-05-07T08:32:17;18.20;99.90
32965;DHT22;19317;48.226;11.686;2023-05-07T08:37:08;18.30;99.90
32965;DHT22;19317;48.226;11.686;2023-05-07T08:42:00;18.50;99.90
32965;DHT22;19317;48.226;11.686;2023-05-07T08:46:52;18.70;99.90
32965;DHT22;19317;48.226;11.686;2023-05-07T08:51:43;18.60;99.90
32965;DHT22;19317;48.226;11.686;2023-05-07T08:56:33;19.00;99.90
32965;DHT22;19317;48.226;11.686;2023-05-07T09:01:24;19.10;99.90
32965;DHT22;19317;48.226;11.686;2023-05-07T09:06:15;19.20;99.90
32965;DHT22;19317;48.226;11.686;2023-05-07T09:11:06;19.30;99.90
32965;DHT22;19317;48.226;11.686;2023-05-07T09:15:56;19.40;99.90
32965;DHT22;19317;48.226;11.686;2023-05-07T09:20:47;19.60;99.90
32965;DHT22;19317;48.226;11.686;2023-05-07T09:25:37;19.70;99.90
32965;DHT22;19317;48.226;11.686;2023-05-07T09:30:31;19.60;99.90
32965;DHT22;19317;48.226;11.686;2023-05-07T09:35:22;19.80;99.90
32965;DHT22;19317;48.226;11.686;2023-05-07T09:40:27;19.80;99.90
32965;DHT22;19317;48.226;11.686;2023-05-07T09:45:28;19.90;99.90
32965;DHT22;19317;48.226;11.686;2023-05-07T09:50:19;20.00;99.90
32965;DHT22;19317;48.226;11.686;2023-05-07T09:55:12;20.10;99.90
32965;DHT22;19317;48.226;11.686;2023-05-07T10:00:03;20.10;99.90
32965;DHT22;19317;48.226;11.686;2023-05-07T10:04:54;20.20;99.90
32965;DHT22;19317;48.226;11.686;2023-05-07T10:09:45;20.30;99.90
32965;DHT22;19317;48.226;11.686;2023-05-07T10:14:36;20.40;99.90
32965;DHT22;19317;48.226;11.686;2023-05-07T10:19:28;20.50;99.90
32965;DHT22;19317;48.226;11.686;2023-05-07T10:24:22;20.40;99.90
32965;DHT22;19317;48.226;11.686;2023-05-07T10:34:49;20.40;99.90
32965;DHT22;19317;48.226;11.686;2023-05-07T10:39:41;20.60;99.90
32965;DHT22;19317;48.226;11.686;2023-05-07T10:44:31;20.60;99.90
32965;DHT22;19317;48.226;11.686;2023-05-07T10:49:22;20.50;99.90
32965;DHT22;19317;48.226;11.686;2023-05-07T11:04:13;21.00;99.90
32965;DHT22;19317;48.226;11.686;2023-05-07T11:09:04;21.00;99.90
32965;DHT22;19317;48.226;11.686;2023-05-07T11:13:54;21.00;99.90
32965;DHT22;19317;48.226;11.686;2023-05-07T11:18:53;21.00;99.90
32965;DHT22;19317;48.226;11.686;2023-05-07T11:28:39;21.10;99.90
32965;DHT22;19317;48.226;11.686;2023-05-07T11:33:32;21.10;99.90
32965;DHT22;19317;48.226;11.686;2023-05-07T11:38:23;21.20;99.90
32965;DHT22;19317;48.226;11.686;2023-05-07T11:43:14;21.30;99.90
32965;DHT22;19317;48.226;11.686;2023-05-07T11:48:05;21.40;99.90
32965;DHT22;19317;48.226;11.686;2023-05-07T11:52:55;21.60;99.90
32965;DHT22;19317;48.226;11.686;2023-05-07T11:57:46;21.60;99.90
32965;DHT22;19317;48.226;11.686;2023-05-07T12:02:37;21.60;99.90
32965;DHT22;19317;48.226;11.686;2023-05-07T12:07:27;21.70;99.90
32965;DHT22;19317;48.226;11.686;2023-05-07T12:12:17;21.80;99.90
32965;DHT22;19317;48.226;11.686;2023-05-07T12:17:09;21.80;99.90
32965;DHT22;19317;48.226;11.686;2023-05-07T12:22:02;21.80;99.90
32965;DHT22;19317;48.226;11.686;2023-05-07T12:26:53;21.80;99.90
32965;DHT22;19317;48.226;11.686;2023-05-07T12:31:44;21.80;99.90
32965;DHT22;19317;48.226;11.686;2023-05-07T12:36:38;22.00;99.90
32965;DHT22;19317;48.226;11.686;2023-05-07T12:41:28;22.10;99.90
32965;DHT22;19317;48.226;11.686;2023-05-07T12:46:19;22.00;99.90
32965;DHT22;19317;48.226;11.686;2023-05-07T12:51:09;22.20;99.90
32965;DHT22;19317;48.226;11.686;2023-05-07T12:56:00;22.30;99.90
32965;DHT22;19317;48.226;11.686;2023-05-07T13:00:51;22.10;99.90
32965;DHT22;19317;48.226;11.686;2023-05-07T13:05:41;22.20;99.90
32965;DHT22;19317;48.226;11.686;2023-05-07T13:10:32;22.30;99.90
32965;DHT22;19317;48.226;11.686;2023-05-07T13:15:22;22.30;99.90
32965;DHT22;19317;48.226;11.686;2023-05-07T13:20:13;22.20;99.90
32965;DHT22;19317;48.226;11.686;2023-05-07T13:25:03;22.30;99.90
32965;DHT22;19317;48.226;11.686;2023-05-07T13:29:54;22.40;99.90
32965;DHT22;19317;48.226;11.686;2023-05-07T13:34:44;22.30;99.90
32965;DHT22;19317;48.226;11.686;2023-05-07T13:39:35;22.20;99.90
32965;DHT22;19317;48.226;11.686;2023-05-07T13:44:26;22.10;99.90
32965;DHT22;19317;48.226;11.686;2023-05-07T13:49:16;22.00;99.90
32965;DHT22;19317;48.226;11.686;2023-05-07T13:54:07;22.60;99.90
32965;DHT22;19317;48.226;11.686;2023-05-07T13:59:00;22.10;99.90
32965;DHT22;19317;48.226;11.686;2023-05-07T14:03:51;22.30;99.90
32965;DHT22;19317;48.226;11.686;2023-05-07T14:08:41;22.40;99.90
32965;DHT22;19317;48.226;11.686;2023-05-07T14:13:32;22.40;99.90
32965;DHT22;19317;48.226;11.686;2023-05-07T14:18:22;22.20;99.90
32965;DHT22;19317;48.226;11.686;2023-05-07T14:23:12;22.30;99.90
32965;DHT22;19317;48.226;11.686;2023-05-07T14:28:03;22.10;99.90
32965;DHT22;19317;48.226;11.686;2023-05-07T14:32:53;22.10;99.90
32965;DHT22;19317;48.226;11.686;2023-05-07T14:37:44;22.10;99.90
32965;DHT22;19317;48.226;11.686;2023-05-07T14:42:34;22.20;99.90
32965;DHT22;19317;48.226;11.686;2023-05-07T14:47:25;22.00;99.90
32965;DHT22;19317;48.226;11.686;2023-05-07T14:52:15;22.10;99.90
32965;DHT22;19317;48.226;11.686;2023-05-07T14:57:07;21.90;99.90
32965;DHT22;19317;48.226;11.686;2023-05-07T15:01:58;21.90;99.90
32965;DHT22;19317;48.226;11.686;2023-05-07T15:06:49;21.70;99.90
32965;DHT22;19317;48.226;11.686;2023-05-07T15:11:39;21.70;99.90
32965;DHT22;19317;48.226;11.686;2023-05-07T15:16:29;21.70;99.90
32965;DHT22;19317;48.226;11.686;2023-05-07T15:21:20;21.60;99.90
32965;DHT22;19317;48.226;11.686;2023-05-07T15:26:10;21.60;99.90
32965;DHT22;19317;48.226;11.686;2023-05-07T15:31:01;21.50;99.90
32965;DHT22;19317;48.226;11.686;2023-05-07T15:35:51;21.50;99.90
32965;DHT22;19317;48.226;11.686;2023-05-07T15:40:42;21.40;99.90
32965;DHT22;19317;48.226;11.686;2023-05-07T15:45:32;21.30;99.90
32965;DHT22;19317;48.226;11.686;2023-05-07T15:50:23;21.30;99.90
32965;DHT22;19317;48.226;11.686;2023-05-07T15:55:13;21.20;99.90
32965;DHT22;19317;48.226;11.686;2023-05-07T16:00:04;21.10;99.90
32965;DHT22;19317;48.226;11.686;2023-05-07T16:04:55;21.10;99.90
32965;DHT22;19317;48.226;11.686;2023-05-07T16:09:45;21.00;99.90
32965;DHT22;19317;48.226;11.686;2023-05-07T16:14:36;21.00;99.90
32965;DHT22;19317;48.226;11.686;2023-05-07T16:19:26;21.30;99.90
32965;DHT22;19317;48.226;11.686;2023-05-07T16:24:17;20.90;99.90
32965;DHT22;19317;48.226;11.686;2023-05-07T16:29:07;20.80;99.90
32965;DHT22;19317;48.226;11.686;2023-05-07T16:33:58;20.70;99.90
32965;DHT22;19317;48.226;11.686;2023-05-07T16:38:49;20.70;99.90
32965;DHT22;19317;48.226;11.686;2023-05-07T16:43:39;20.70;99.90
32965;DHT22;19317;48.226;11.686;2023-05-07T16:48:30;20.60;99.90
32965;DHT22;19317;48.226;11.686;2023-05-07T16:53:20;20.60;99.90
32965;DHT22;19317;48.226;11.686;2023-05-07T16:58:11;20.50;99.90
32965;DHT22;19317;48.226;11.686;2023-05-07T17:03:02;20.60;99.90
32965;DHT22;19317;48.226;11.686;2023-05-07T17:07:54;20.40;99.90
32965;DHT22;19317;48.226;11.686;2023-05-07T17:12:45;20.50;99.90
32965;DHT22;19317;48.226;11.686;2023-05-07T17:17:35;20.40;99.90
32965;DHT22;19317;48.226;11.686;2023-05-07T17:22:26;20.40;99.90
32965;DHT22;19317;48.226;11.686;2023-05-07T17:27:16;20.30;99.90
32965;DHT22;19317;48.226;11.686;2023-05-07T17:32:07;20.20;99.90
32965;DHT22;19317;48.226;11.686;2023-05-07T17:36:57;20.10;99.90
32965;DHT22;19317;48.226;11.686;2023-05-07T17:41:48;20.30;99.90
32965;DHT22;19317;48.226;11.686;2023-05-07T17:46:38;20.30;99.90
32965;DHT22;19317;48.226;11.686;2023-05-07T17:51:28;20.10;99.90
32965;DHT22;19317;48.226;11.686;2023-05-07T17:56:19;20.10;99.90
32965;DHT22;19317;48.226;11.686;2023-05-07T18:01:09;20.10;99.90
32965;DHT22;19317;48.226;11.686;2023-05-07T18:06:00;20.00;99.90
32965;DHT22;19317;48.226;11.686;2023-05-07T18:10:50;20.00;99.90
32965;DHT22;19317;48.226;11.686;2023-05-07T18:15:41;20.00;99.90
32965;DHT22;19317;48.226;11.686;2023-05-07T18:20:34;19.90;99.90
32965;DHT22;19317;48.226;11.686;2023-05-07T18:25:24;19.80;99.90
32965;DHT22;19317;48.226;11.686;2023-05-07T18:30:15;19.70;99.90
32965;DHT22;19317;48.226;11.686;2023-05-07T18:35:05;19.40;99.90
32965;DHT22;19317;48.226;11.686;2023-05-07T18:39:56;19.40;99.90
32965;DHT22;19317;48.226;11.686;2023-05-07T18:44:47;19.20;99.90
32965;DHT22;19317;48.226;11.686;2023-05-07T18:49:37;19.00;99.90
32965;DHT22;19317;48.226;11.686;2023-05-07T18:54:28;19.10;99.90
32965;DHT22;19317;48.226;11.686;2023-05-07T18:59:18;19.00;99.90
32965;DHT22;19317;48.226;11.686;2023-05-07T19:04:09;19.00;99.90
32965;DHT22;19317;48.226;11.686;2023-05-07T19:09:00;18.90;99.90
32965;DHT22;19317;48.226;11.686;2023-05-07T19:13:50;18.80;99.90
32965;DHT22;19317;48.226;11.686;2023-05-07T19:18:41;18.80;99.90
32965;DHT22;19317;48.226;11.686;2023-05-07T19:23:32;18.70;99.90
32965;DHT22;19317;48.226;11.686;2023-05-07T19:28:22;18.60;99.90
32965;DHT22;19317;48.226;11.686;2023-05-07T19:33:13;18.60;99.90
32965;DHT22;19317;48.226;11.686;2023-05-07T19:38:03;18.40;99.90
32965;DHT22;19317;48.226;11.686;2023-05-07T19:42:54;18.40;99.90
32965;DHT22;19317;48.226;11.686;2023-05-07T19:47:46;18.40;99.90
32965;DHT22;19317;48.226;11.686;2023-05-07T19:52:37;18.30;99.90
32965;DHT22;19317;48.226;11.686;2023-05-07T19:57:27;18.20;99.90
32965;DHT22;19317;48.226;11.686;2023-05-07T20:02:18;18.20;99.90
32965;DHT22;19317;48.226;11.686;2023-05-07T20:07:08;18.20;99.90
32965;DHT22;19317;48.226;11.686;2023-05-07T20:11:59;18.10;99.90
32965;DHT22;19317;48.226;11.686;2023-05-07T20:16:49;18.00;99.90
32965;DHT22;19317;48.226;11.686;2023-05-07T20:21:39;17.90;99.90
32965;DHT22;19317;48.226;11.686;2023-05-07T20:26:30;17.90;99.90
32965;DHT22;19317;48.226;11.686;2023-05-07T20:31:20;17.90;99.90
32965;DHT22;19317;48.226;11.686;2023-05-07T20:36:11;18.00;99.90
32965;DHT22;19317;48.226;11.686;2023-05-07T20:41:09;17.90;99.90
32965;DHT22;19317;48.226;11.686;2023-05-07T20:46:00;17.80;99.90
32965;DHT22;19317;48.226;11.686;2023-05-07T20:50:51;17.70;99.90
32965;DHT22;19317;48.226;11.686;2023-05-07T20:55:41;17.80;99.90
32965;DHT22;19317;48.226;11.686;2023-05-07T21:00:31;18.00;99.90
32965;DHT22;19317;48.226;11.686;2023-05-07T21:05:22;17.80;99.90
32965;DHT22;19317;48.226;11.686;2023-05-07T21:10:12;17.70;99.90
32965;DHT22;19317;48.226;11.686;2023-05-07T21:15:03;17.60;99.90
32965;DHT22;19317;48.226;11.686;2023-05-07T21:19:54;17.60;99.90
32965;DHT22;19317;48.226;11.686;2023-05-07T21:24:44;17.60;99.90
32965;DHT22;19317;48.226;11.686;2023-05-07T21:29:34;17.40;99.90
32965;DHT22;19317;48.226;11.686;2023-05-07T21:34:25;17.40;99.90
32965;DHT22;19317;48.226;11.686;2023-05-07T21:39:15;17.40;99.90
32965;DHT22;19317;48.226;11.686;2023-05-07T21:44:06;17.10;99.90
32965;DHT22;19317;48.226;11.686;2023-05-07T21:48:56;17.10;99.90
32965;DHT22;19317;48.226;11.686;2023-05-07T21:53:47;17.20;99.90
32965;DHT22;19317;48.226;11.686;2023-05-07T21:58:37;17.20;99.90
32965;DHT22;19317;48.226;11.686;2023-05-07T22:03:28;17.20;99.90
32965;DHT22;19317;48.226;11.686;2023-05-07T22:08:18;17.20;99.90
32965;DHT22;19317;48.226;11.686;2023-05-07T22:13:09;17.10;99.90
32965;DHT22;19317;48.226;11.686;2023-05-07T22:17:59;16.80;99.90
32965;DHT22;19317;48.226;11.686;2023-05-07T22:22:52;16.90;99.90
32965;DHT22;19317;48.226;11.686;2023-05-07T22:27:42;16.70;99.90
32965;DHT22;19317;48.226;11.686;2023-05-07T22:32:33;16.70;99.90
32965;DHT22;19317;48.226;11.686;2023-05-07T22:37:24;16.50;99.90
32965;DHT22;19317;48.226;11.686;2023-05-07T22:42:15;16.50;99.90
32965;DHT22;19317;48.226;11.686;2023-05-07T22:47:05;16.60;99.90
32965;DHT22;19317;48.226;11.686;2023-05-07T22:51:56;16.80;99.90
32965;DHT22;19317;48.226;11.686;2023-05-07T22:56:46;16.30;99.90
32965;DHT22;19317;48.226;11.686;2023-05-07T23:01:37;16.60;99.90
32965;DHT22;19317;48.226;11.686;2023-05-07T23:06:27;16.50;99.90
32965;DHT22;19317;48.226;11.686;2023-05-07T23:11:17;16.50;99.90
32965;DHT22;19317;48.226;11.686;2023-05-07T23:16:08;16.70;99.90
32965;DHT22;19317;48.226;11.686;2023-05-07T23:20:58;16.50;99.90
32965;DHT22;19317;48.226;11.686;2023-05-07T23:25:52;16.50;99.90
32965;DHT22;19317;48.226;11.686;2023-05-07T23:30:42;16.60;99.90
32965;DHT22;19317;48.226;11.686;2023-05-07T23:35:33;16.60;99.90
32965;DHT22;19317;48.226;11.686;2023-05-07T23:40:23;17.70;99.90
32965;DHT22;19317;48.226;11.686;2023-05-07T23:45:14;16.40;99.90
32965;DHT22;19317;48.226;11.686;2023-05-07T23:50:05;16.60;99.90
32965;DHT22;19317;48.226;11.686;2023-05-07T23:54:55;16.60;99.90
32965;DHT22;19317;48.226;11.686;2023-05-07T23:59:46;16.40;99.90
